Time;durP1;ratioP1;P1;durP2;ratioP2;P2;SDS_P1;SDS_P2;PMS_P1;PMS_P2;Temp;Humidity;BMP_temperature;BMP_pressure;BME280_temperature;BME280_humidity;BME280_pressure;Samples;Min_cycle;Max_cycle;Signal;HPM_P1;HPM_P2
2023/03/11 00:01:39;;;;;;;20.27;2.08;;;;;;;0.68;100.00;100367.69;5016363;28;20040;-78
2023/03/11 00:04:08;;;;;;;10.70;2.00;;;;;;;0.62;100.00;100363.81;5027252;28;20043;-79
2023/03/11 00:06:35;;;;;;;13.48;2.33;;;;;;;0.53;100.00;100367.81;5030770;28;20036;-80
2023/03/11 00:09:04;;;;;;;16.17;1.83;;;;;;;0.62;100.00;100363.81;5028247;28;20097;-78
2023/03/11 00:11:29;;;;;;;10.73;2.45;;;;;;;0.67;100.00;100372.00;5012122;28;20029;-78
2023/03/11 00:13:55;;;;;;;15.63;2.20;;;;;;;0.69;100.00;100371.91;5025139;28;20041;-79
2023/03/11 00:16:21;;;;;;;17.13;2.22;;;;;;;0.56;100.00;100372.69;5027714;28;20029;-79
2023/03/11 00:18:50;;;;;;;10.65;2.42;;;;;;;0.60;100.00;100375.06;5028563;28;20098;-79
2023/03/11 00:21:17;;;;;;;16.92;2.50;;;;;;;0.57;100.00;100376.09;5030657;28;20151;-80
2023/03/11 00:23:43;;;;;;;14.60;3.28;;;;;;;0.61;100.00;100382.63;5024638;28;20380;-80
2023/03/11 00:26:08;;;;;;;17.58;3.58;;;;;;;0.56;100.00;100388.00;5010332;28;20037;-79
2023/03/11 00:28:34;;;;;;;16.63;2.65;;;;;;;0.56;100.00;100375.25;5012076;28;20103;-80
2023/03/11 00:30:59;;;;;;;13.07;1.85;;;;;;;0.60;100.00;100386.06;5010376;28;20036;-79
2023/03/11 00:33:26;;;;;;;9.90;1.63;;;;;;;0.60;100.00;100391.19;5026665;28;20799;-79
2023/03/11 00:35:52;;;;;;;18.02;3.58;;;;;;;0.67;100.00;100381.38;5026687;28;20225;-79
2023/03/11 00:38:18;;;;;;;15.32;3.60;;;;;;;0.65;100.00;100386.59;5006023;28;20423;-77
2023/03/11 00:40:46;;;;;;;12.57;2.30;;;;;;;0.62;100.00;100384.22;5011586;28;20033;-79
2023/03/11 00:43:12;;;;;;;12.55;1.80;;;;;;;0.61;100.00;100382.63;5010316;28;20049;-79
2023/03/11 00:45:38;;;;;;;13.65;2.55;;;;;;;0.56;100.00;100387.19;5017342;28;20098;-80
2023/03/11 00:48:04;;;;;;;12.68;2.42;;;;;;;0.54;100.00;100397.50;5035038;28;20499;-79
2023/03/11 00:50:32;;;;;;;10.00;2.15;;;;;;;0.53;100.00;100403.53;5021733;28;20478;-79
2023/03/11 00:52:58;;;;;;;14.30;2.05;;;;;;;0.45;100.00;100398.09;5032259;28;20049;-79
2023/03/11 00:55:27;;;;;;;13.90;2.03;;;;;;;0.45;100.00;100403.22;5030714;28;20345;-79
2023/03/11 00:57:55;;;;;;;9.02;1.80;;;;;;;0.37;100.00;100398.59;5033899;28;20032;-80
2023/03/11 01:00:24;;;;;;;15.75;1.60;;;;;;;0.34;100.00;100406.47;5031995;28;20040;-79
2023/03/11 01:02:50;;;;;;;13.10;1.77;;;;;;;0.32;100.00;100402.38;5016129;28;21549;-79
2023/03/11 01:05:19;;;;;;;13.82;2.40;;;;;;;0.31;100.00;100410.97;5016111;28;20171;-80
2023/03/11 01:07:44;;;;;;;12.63;2.85;;;;;;;0.27;100.00;100412.88;5016872;28;20037;-79
2023/03/11 01:10:10;;;;;;;11.07;2.17;;;;;;;0.34;100.00;100413.28;5017947;28;20158;-78
2023/03/11 01:12:36;;;;;;;10.52;1.65;;;;;;;0.23;100.00;100414.00;5027834;28;20394;-79
2023/03/11 01:15:03;;;;;;;13.38;1.85;;;;;;;0.20;100.00;100414.19;5027654;28;20044;-79
2023/03/11 01:17:28;;;;;;;12.05;2.28;;;;;;;0.17;100.00;100415.22;5011378;28;20029;-79
2023/03/11 01:19:53;;;;;;;6.80;1.63;;;;;;;0.19;100.00;100412.56;5009696;28;20102;-80
2023/03/11 01:22:20;;;;;;;10.40;2.03;;;;;;;0.12;100.00;100413.88;5014020;28;20037;-80
2023/03/11 01:24:46;;;;;;;11.98;2.00;;;;;;;0.01;100.00;100413.75;5024733;28;20040;-80
2023/03/11 01:27:11;;;;;;;8.90;2.17;;;;;;;-0.04;100.00;100417.41;5031682;28;20049;-79
2023/03/11 01:29:37;;;;;;;16.27;2.40;;;;;;;0.07;100.00;100426.91;5012643;28;20041;-79
2023/03/11 01:32:02;;;;;;;12.40;3.00;;;;;;;-0.02;100.00;100430.88;5031658;28;20032;-79
2023/03/11 01:34:27;;;;;;;9.48;2.10;;;;;;;0.01;100.00;100429.03;5027897;28;20048;-79
2023/03/11 01:36:53;;;;;;;10.10;1.90;;;;;;;-0.04;100.00;100432.69;5014035;28;20028;-79
2023/03/11 01:39:18;;;;;;;28.15;3.50;;;;;;;0.06;100.00;100432.94;5028867;28;20099;-79
2023/03/11 01:41:44;;;;;;;14.10;1.80;;;;;;;-0.03;100.00;100446.25;5023186;28;20041;-80
2023/03/11 01:44:12;;;;;;;16.13;2.88;;;;;;;-0.03;100.00;100444.50;5014871;28;20060;-80
2023/03/11 01:46:53;;;;;;;12.13;1.90;;;;;;;-0.05;100.00;100450.63;5017363;28;20506;-79
2023/03/11 01:49:23;;;;;;;12.65;2.00;;;;;;;-0.11;100.00;100449.28;5049241;28;20052;-79
2023/03/11 01:51:51;;;;;;;13.00;2.30;;;;;;;-0.12;100.00;100455.28;5030406;28;20032;-79
2023/03/11 01:54:24;;;;;;;12.05;2.80;;;;;;;-0.23;100.00;100455.97;5046484;28;20103;-80
2023/03/11 01:56:51;;;;;;;12.70;2.38;;;;;;;-0.17;100.00;100459.88;5028478;28;20120;-79
2023/03/11 01:59:21;;;;;;;10.23;2.28;;;;;;;-0.26;100.00;100457.88;5018202;28;20667;-79
2023/03/11 02:02:05;;;;;;;13.75;2.40;;;;;;;-0.29;100.00;100460.63;5019680;28;20507;-80
2023/03/11 02:04:33;;;;;;;9.73;1.75;;;;;;;-0.33;100.00;100457.44;5028078;28;20044;-80
2023/03/11 02:07:00;;;;;;;16.77;1.70;;;;;;;-0.37;100.00;100462.81;5031437;28;20039;-79
2023/03/11 02:09:26;;;;;;;12.45;2.40;;;;;;;-0.44;100.00;100467.47;5021767;28;20040;-79
2023/03/11 02:11:52;;;;;;;13.20;2.50;;;;;;;-0.47;100.00;100460.00;5023655;28;20025;-79
2023/03/11 02:14:19;;;;;;;10.40;1.52;;;;;;;-0.44;100.00;100457.28;5028715;28;20111;-78
2023/03/11 02:16:46;;;;;;;12.82;2.15;;;;;;;-0.45;100.00;100466.66;5030118;28;20029;-79
2023/03/11 02:19:53;;;;;;;11.57;1.55;;;;;;;-0.42;100.00;100463.09;5008418;28;20093;-79
2023/03/11 02:22:19;;;;;;;13.90;2.85;;;;;;;-0.49;100.00;100462.66;5012082;28;20037;-79
2023/03/11 02:24:51;;;;;;;17.13;3.20;;;;;;;-0.52;100.00;100460.28;5015774;28;20032;-79
2023/03/11 02:27:20;;;;;;;12.18;1.92;;;;;;;-0.61;100.00;100464.19;5016668;28;20044;-78
2023/03/11 02:29:50;;;;;;;15.43;1.73;;;;;;;-0.62;100.00;100465.13;5013366;28;20613;-80
2023/03/11 02:32:17;;;;;;;6.72;1.63;;;;;;;-0.63;100.00;100473.66;5037601;28;20506;-79
2023/03/11 02:34:43;;;;;;;10.48;2.20;;;;;;;-0.67;100.00;100466.31;5033317;28;20491;-80
2023/03/11 02:37:12;;;;;;;7.88;1.40;;;;;;;-0.65;100.00;100467.84;5014618;28;20071;-80
2023/03/11 02:39:45;;;;;;;7.85;1.40;;;;;;;-0.64;100.00;100463.56;5015675;28;20036;-77
2023/03/11 02:42:18;;;;;;;8.15;1.40;;;;;;;-0.67;100.00;100476.50;5022047;28;20064;-79
2023/03/11 02:44:48;;;;;;;11.73;1.75;;;;;;;-0.71;100.00;100482.69;5031985;28;20041;-79
2023/03/11 02:47:15;;;;;;;12.50;2.20;;;;;;;-0.77;100.00;100471.13;5024955;28;20114;-79
2023/03/11 02:49:41;;;;;;;19.70;3.33;;;;;;;-0.80;100.00;100476.41;5005929;28;20139;-79
2023/03/11 02:52:07;;;;;;;10.30;1.50;;;;;;;-0.83;100.00;100476.56;5027234;28;20562;-79
2023/03/11 02:54:32;;;;;;;14.98;3.15;;;;;;;-0.79;100.00;100475.50;5015112;28;20041;-80
2023/03/11 02:56:58;;;;;;;11.00;1.75;;;;;;;-0.84;100.00;100469.84;5016667;28;20590;-79
2023/03/11 02:59:25;;;;;;;6.32;1.55;;;;;;;-0.90;100.00;100476.13;5030148;28;20087;-79
2023/03/11 03:01:51;;;;;;;11.30;1.35;;;;;;;-0.83;100.00;100479.09;5030912;28;20021;-80
2023/03/11 03:04:17;;;;;;;9.48;1.60;;;;;;;-0.95;100.00;100470.47;5022846;28;20094;-79
2023/03/11 03:06:42;;;;;;;5.80;1.38;;;;;;;-0.93;100.00;100476.28;5028941;28;20480;-80
2023/03/11 03:09:08;;;;;;;17.48;1.65;;;;;;;-0.91;100.00;100471.94;5023698;28;20064;-79
2023/03/11 03:11:34;;;;;;;5.00;1.75;;;;;;;-0.95;100.00;100475.56;5030337;28;20038;-80
2023/03/11 03:13:59;;;;;;;11.68;2.20;;;;;;;-1.03;100.00;100465.03;5029230;28;20040;-79
2023/03/11 03:16:25;;;;;;;11.52;2.15;;;;;;;-1.04;100.00;100481.19;5021681;28;20037;-80
2023/03/11 03:18:51;;;;;;;9.93;1.67;;;;;;;-1.04;100.00;100483.72;5039881;28;20037;-80
2023/03/11 03:21:17;;;;;;;10.13;2.25;;;;;;;-1.04;100.00;100489.63;5027165;28;20055;-79
2023/03/11 03:23:42;;;;;;;11.30;2.15;;;;;;;-0.99;100.00;100485.09;5027799;28;20051;-80
2023/03/11 03:26:12;;;;;;;14.05;3.17;;;;;;;-1.01;100.00;100496.28;5029840;28;20033;-79
2023/03/11 03:28:38;;;;;;;5.55;1.60;;;;;;;-1.00;100.00;100493.66;5027400;28;20127;-80
2023/03/11 03:31:08;;;;;;;7.00;1.33;;;;;;;-1.03;100.00;100498.13;5012837;28;20025;-79
2023/03/11 03:33:36;;;;;;;12.50;1.95;;;;;;;-1.03;100.00;100501.47;5006337;28;20037;-80
2023/03/11 03:36:09;;;;;;;15.13;1.52;;;;;;;-1.05;100.00;100502.47;5033886;28;20025;-79
2023/03/11 03:38:41;;;;;;;12.75;1.60;;;;;;;-1.10;100.00;100509.53;5023934;28;20029;-80
2023/03/11 03:41:07;;;;;;;13.05;1.58;;;;;;;-1.05;100.00;100512.66;5024673;28;20408;-79
2023/03/11 03:43:36;;;;;;;13.88;2.38;;;;;;;-1.12;100.00;100519.00;5027212;28;20042;-80
2023/03/11 03:46:04;;;;;;;13.48;2.20;;;;;;;-1.14;100.00;100520.81;5031097;28;20063;-80
2023/03/11 03:48:35;;;;;;;5.18;1.10;;;;;;;-1.23;100.00;100522.16;5014888;28;20030;-79
2023/03/11 03:51:06;;;;;;;11.77;1.50;;;;;;;-1.10;100.00;100528.16;5007073;28;20217;-80
2023/03/11 03:53:33;;;;;;;11.65;1.60;;;;;;;-1.08;100.00;100530.63;5024713;28;20032;-80
2023/03/11 03:56:07;;;;;;;10.57;1.70;;;;;;;-1.14;100.00;100539.44;5027149;28;20033;-80
2023/03/11 03:58:34;;;;;;;10.32;1.50;;;;;;;-1.16;100.00;100537.91;5029318;28;20032;-80
2023/03/11 04:01:00;;;;;;;6.50;1.30;;;;;;;-1.13;100.00;100537.72;5029020;28;20507;-79
2023/03/11 04:03:27;;;;;;;15.88;2.83;;;;;;;-1.14;100.00;100547.06;5027438;28;20267;-80
2023/03/11 04:06:14;;;;;;;6.63;1.73;;;;;;;-1.04;100.00;100543.09;5032909;28;20036;-79
2023/03/11 04:08:40;;;;;;;7.93;2.47;;;;;;;-1.07;100.00;100548.38;5026371;28;20049;-80
2023/03/11 04:11:07;;;;;;;11.13;2.50;;;;;;;-1.11;100.00;100544.38;5027049;28;20026;-80
2023/03/11 04:13:34;;;;;;;10.15;2.03;;;;;;;-1.13;100.00;100551.28;5032282;28;20036;-79
2023/03/11 04:16:06;;;;;;;6.32;2.30;;;;;;;-1.22;100.00;100552.59;5018804;28;20029;-80
2023/03/11 04:18:32;;;;;;;11.70;3.08;;;;;;;-1.21;100.00;100554.22;5031696;28;20034;-80
2023/03/11 04:20:58;;;;;;;12.43;1.77;;;;;;;-1.20;100.00;100552.53;5032167;28;20044;-80
2023/03/11 04:23:34;;;;;;;19.27;1.98;;;;;;;-1.23;100.00;100557.78;5014366;28;20037;-79
2023/03/11 04:26:00;;;;;;;12.65;1.67;;;;;;;-1.19;100.00;100560.06;5017856;28;20033;-79
2023/03/11 04:28:26;;;;;;;8.18;2.22;;;;;;;-1.28;100.00;100563.13;5022105;28;20033;-80
2023/03/11 04:30:52;;;;;;;7.90;1.77;;;;;;;-1.31;100.00;100565.84;5034378;28;20022;-79
2023/03/11 04:33:18;;;;;;;13.38;1.73;;;;;;;-1.20;100.00;100560.16;5030502;28;20032;-79
2023/03/11 04:35:44;;;;;;;14.48;2.25;;;;;;;-1.16;100.00;100553.16;5013388;28;20035;-80
2023/03/11 04:38:09;;;;;;;17.88;2.05;;;;;;;-1.12;100.00;100565.63;5015957;28;20062;-79
2023/03/11 04:40:38;;;;;;;7.13;2.20;;;;;;;-1.17;100.00;100567.59;5032492;28;20099;-79
2023/03/11 04:43:05;;;;;;;9.05;1.23;;;;;;;-1.07;100.00;100571.28;5017311;28;20059;-80
2023/03/11 04:45:30;;;;;;;16.10;2.00;;;;;;;-1.02;100.00;100576.94;5018973;28;20059;-80
2023/03/11 04:47:58;;;;;;;15.60;2.60;;;;;;;-1.12;100.00;100573.25;5020666;28;20445;-80
2023/03/11 04:50:24;;;;;;;21.38;2.13;;;;;;;-1.08;100.00;100576.44;5031675;28;20083;-84
2023/03/11 04:52:50;;;;;;;9.73;1.25;;;;;;;-1.01;100.00;100581.09;5015164;28;20091;-80
2023/03/11 04:55:16;;;;;;;11.00;1.90;;;;;;;-1.08;100.00;100573.91;5034515;28;20483;-81
2023/03/11 04:57:42;;;;;;;5.28;1.30;;;;;;;-1.09;100.00;100585.81;5028809;28;20029;-79
2023/03/11 05:00:11;;;;;;;5.88;1.77;;;;;;;-1.12;100.00;100593.63;5034438;28;20487;-79
2023/03/11 05:02:39;;;;;;;8.13;1.50;;;;;;;-1.13;100.00;100583.50;5034145;28;20072;-79
2023/03/11 05:05:06;;;;;;;17.23;1.88;;;;;;;-1.12;100.00;100588.53;5038428;28;20479;-79
2023/03/11 05:07:32;;;;;;;10.35;1.65;;;;;;;-1.12;100.00;100587.72;5036588;28;20447;-80
2023/03/11 05:09:58;;;;;;;7.80;1.50;;;;;;;-1.17;100.00;100587.94;5031415;28;20075;-79
2023/03/11 05:12:24;;;;;;;11.23;1.60;;;;;;;-1.18;100.00;100591.41;5034375;28;20487;-79
2023/03/11 05:14:52;;;;;;;5.82;2.20;;;;;;;-1.20;100.00;100596.59;5009855;28;20037;-80
2023/03/11 05:17:18;;;;;;;9.80;2.50;;;;;;;-1.09;100.00;100593.44;5015339;28;20403;-79
2023/03/11 05:19:45;;;;;;;8.65;1.60;;;;;;;-1.13;100.00;100599.63;5036664;28;20380;-80
2023/03/11 05:22:19;;;;;;;13.90;1.55;;;;;;;-1.12;100.00;100596.16;5036719;28;20533;-79
2023/03/11 05:24:46;;;;;;;6.05;1.60;;;;;;;-1.16;100.00;100596.44;5022326;28;20044;-80
2023/03/11 05:27:12;;;;;;;9.48;1.85;;;;;;;-1.15;100.00;100598.06;5032128;28;20033;-79
2023/03/11 05:29:38;;;;;;;9.40;1.50;;;;;;;-1.17;100.00;100600.69;5030696;28;20033;-81
2023/03/11 05:32:07;;;;;;;8.27;1.65;;;;;;;-1.16;100.00;100609.97;5030217;28;20021;-79
2023/03/11 05:34:32;;;;;;;8.02;1.75;;;;;;;-1.19;100.00;100610.13;5038260;28;20036;-79
2023/03/11 05:36:58;;;;;;;6.25;1.75;;;;;;;-1.21;100.00;100614.47;5035084;28;20032;-81
2023/03/11 05:39:24;;;;;;;8.98;1.63;;;;;;;-1.23;100.00;100608.66;5024059;28;20071;-80
2023/03/11 05:41:49;;;;;;;12.15;2.10;;;;;;;-1.16;100.00;100607.41;5036282;28;20040;-80
2023/03/11 05:44:16;;;;;;;9.75;1.80;;;;;;;-1.15;100.00;100611.59;5020387;28;20547;-79
2023/03/11 05:46:42;;;;;;;6.30;2.10;;;;;;;-1.18;100.00;100616.88;5036843;28;21023;-79
2023/03/11 05:49:07;;;;;;;6.10;2.25;;;;;;;-1.20;100.00;100618.69;5021968;28;20637;-79
2023/03/11 05:51:34;;;;;;;11.25;1.98;;;;;;;-1.22;100.00;100620.50;5036523;28;20395;-80
2023/03/11 05:53:59;;;;;;;7.90;1.77;;;;;;;-1.21;100.00;100615.28;5033195;28;20044;-79
2023/03/11 05:56:33;;;;;;;16.80;3.00;;;;;;;-1.17;100.00;100631.22;5034128;28;20048;-79
2023/03/11 05:58:59;;;;;;;11.32;2.05;;;;;;;-1.16;100.00;100621.88;5019637;28;20029;-79
2023/03/11 06:01:28;;;;;;;11.05;2.17;;;;;;;-1.15;100.00;100626.03;5027944;28;20101;-79
2023/03/11 06:03:53;;;;;;;8.30;2.17;;;;;;;-1.15;100.00;100634.50;5016616;28;20033;-80
2023/03/11 06:06:19;;;;;;;8.38;2.15;;;;;;;-1.17;100.00;100636.31;5032209;28;20985;-79
2023/03/11 06:08:48;;;;;;;13.07;2.40;;;;;;;-1.19;100.00;100644.06;5033160;28;20561;-83
2023/03/11 06:11:15;;;;;;;7.57;2.25;;;;;;;-1.20;100.00;100650.03;5021422;28;20025;-80
2023/03/11 06:13:41;;;;;;;17.75;3.35;;;;;;;-1.17;100.00;100646.47;5049758;28;20083;-79
2023/03/11 06:16:09;;;;;;;6.65;1.98;;;;;;;-1.19;100.00;100638.13;5018973;28;20143;-80
2023/03/11 06:18:35;;;;;;;7.72;2.20;;;;;;;-1.20;100.00;100644.13;5020945;28;20911;-81
2023/03/11 06:21:02;;;;;;;16.45;3.65;;;;;;;-1.12;100.00;100636.88;5035219;28;20036;-80
2023/03/11 06:23:31;;;;;;;14.30;3.67;;;;;;;-1.14;100.00;100646.31;5012664;28;20445;-83
2023/03/11 06:26:06;;;;;;;11.40;3.47;;;;;;;-1.14;100.00;100653.97;5037039;28;20036;-79
2023/03/11 06:28:37;;;;;;;18.35;3.80;;;;;;;-1.19;100.00;100649.13;5035614;28;20032;-80
2023/03/11 06:31:13;;;;;;;25.25;5.65;;;;;;;-1.15;100.00;100654.84;5035102;28;20410;-79
2023/03/11 06:33:38;;;;;;;18.50;6.43;;;;;;;-1.21;100.00;100648.38;5014563;28;20055;-79
2023/03/11 06:36:05;;;;;;;18.88;6.80;;;;;;;-1.21;100.00;100662.81;5035591;28;20499;-79
2023/03/11 06:38:31;;;;;;;27.58;7.43;;;;;;;-1.10;100.00;100665.59;5018409;28;20037;-83
2023/03/11 06:41:02;;;;;;;26.27;6.65;;;;;;;-1.00;100.00;100668.47;5016164;28;20039;-79
2023/03/11 06:43:30;;;;;;;21.30;6.15;;;;;;;-1.10;100.00;100677.53;5034872;28;20147;-79
2023/03/11 06:45:57;;;;;;;23.55;7.38;;;;;;;-1.14;100.00;100678.59;5034952;28;20028;-80
2023/03/11 06:48:24;;;;;;;22.73;6.22;;;;;;;-1.14;100.00;100679.41;5033848;28;20650;-79
2023/03/11 06:50:55;;;;;;;23.70;5.68;;;;;;;-1.15;100.00;100687.13;5034637;28;20119;-79
2023/03/11 06:53:22;;;;;;;15.20;3.97;;;;;;;-1.14;100.00;100692.13;5033771;28;20037;-79
2023/03/11 06:56:08;;;;;;;19.10;4.15;;;;;;;-1.07;100.00;100696.00;5034944;28;20582;-79
2023/03/11 06:58:41;;;;;;;15.23;4.10;;;;;;;-1.00;100.00;100711.75;5052443;28;20033;-80
2023/03/11 07:01:14;;;;;;;17.40;4.18;;;;;;;-0.55;100.00;100705.00;5031559;28;20032;-80
2023/03/11 07:03:40;;;;;;;13.38;3.75;;;;;;;-0.04;100.00;100713.13;5033794;28;20523;-80
2023/03/11 07:06:10;;;;;;;13.05;3.92;;;;;;;0.47;100.00;100717.78;5036160;28;20017;-79
2023/03/11 07:08:35;;;;;;;48.00;14.88;;;;;;;0.89;98.63;100713.50;5027101;28;20053;-79
2023/03/11 07:11:11;;;;;;;59.13;15.98;;;;;;;1.57;95.68;100716.88;5033798;28;20034;-80
2023/03/11 07:13:37;;;;;;;56.60;15.90;;;;;;;2.11;91.93;100723.53;5028975;28;20900;-80
2023/03/11 07:16:07;;;;;;;30.73;12.13;;;;;;;2.48;88.20;100721.06;5035582;28;20043;-79
2023/03/11 07:18:34;;;;;;;16.88;7.70;;;;;;;2.92;85.59;100725.66;5031017;28;20048;-80
2023/03/11 07:21:06;;;;;;;24.50;7.28;;;;;;;3.43;82.87;100724.59;5017093;28;20025;-78
2023/03/11 07:23:32;;;;;;;18.77;7.18;;;;;;;3.54;80.50;100735.81;5040466;28;20044;-79
2023/03/11 07:25:58;;;;;;;18.88;4.85;;;;;;;3.92;77.67;100727.88;5030662;28;20028;-79
2023/03/11 07:28:26;;;;;;;27.95;12.77;;;;;;;4.00;74.41;100740.94;5041977;28;20037;-78
2023/03/11 07:30:52;;;;;;;16.90;6.53;;;;;;;4.34;74.43;100746.09;5015781;28;20035;-78
2023/03/11 07:33:18;;;;;;;14.90;5.03;;;;;;;4.71;73.15;100747.56;5031872;28;20045;-79
2023/03/11 07:35:43;;;;;;;24.52;7.68;;;;;;;4.55;71.11;100741.06;5030050;28;20044;-78
2023/03/11 07:38:09;;;;;;;15.15;4.15;;;;;;;4.98;69.53;100742.03;5031172;28;20048;-77
2023/03/11 07:40:35;;;;;;;12.10;3.55;;;;;;;5.04;67.99;100752.63;5027788;28;20029;-77
2023/03/11 07:43:00;;;;;;;12.98;3.67;;;;;;;5.37;67.66;100756.06;5026195;28;20503;-80
2023/03/11 07:45:26;;;;;;;19.52;5.13;;;;;;;5.75;67.57;100757.28;5032465;28;20025;-79
2023/03/11 07:47:52;;;;;;;13.38;4.65;;;;;;;5.93;65.75;100756.69;5032704;28;20491;-78
2023/03/11 07:50:18;;;;;;;17.90;5.40;;;;;;;5.54;67.79;100759.00;5027925;28;20037;-78
2023/03/11 07:52:43;;;;;;;10.63;2.35;;;;;;;5.46;64.51;100765.59;5026557;28;20132;-78
2023/03/11 07:55:09;;;;;;;6.18;1.80;;;;;;;5.88;66.69;100763.97;5031210;28;20036;-79
2023/03/11 07:57:34;;;;;;;27.73;10.77;;;;;;;5.98;65.23;100765.69;5034384;28;20028;-79
2023/03/11 08:00:00;;;;;;;19.67;6.07;;;;;;;6.40;65.10;100759.66;5032924;28;20111;-78
2023/03/11 08:02:26;;;;;;;11.30;3.15;;;;;;;6.50;64.53;100757.13;5035823;28;20043;-80
2023/03/11 08:04:51;;;;;;;11.32;2.10;;;;;;;6.80;63.33;100758.88;5030108;28;20044;-81
2023/03/11 08:07:17;;;;;;;6.97;1.70;;;;;;;6.94;62.94;100768.78;5031733;28;20033;-79
2023/03/11 08:09:42;;;;;;;9.65;2.10;;;;;;;7.25;61.34;100773.81;5030982;28;20660;-79
2023/03/11 08:12:08;;;;;;;19.98;7.38;;;;;;;7.38;59.04;100778.72;5037618;28;20032;-80
2023/03/11 08:14:34;;;;;;;19.08;5.88;;;;;;;7.42;59.79;100774.91;5018265;28;20056;-78
2023/03/11 08:16:59;;;;;;;16.08;6.35;;;;;;;7.53;60.23;100777.38;5031795;28;20029;-79
2023/03/11 08:19:24;;;;;;;21.27;7.45;;;;;;;7.65;58.20;100772.91;5022049;28;20045;-80
2023/03/11 08:21:50;;;;;;;24.90;7.18;;;;;;;7.41;61.69;100770.72;5027754;28;20041;-79
2023/03/11 08:24:15;;;;;;;11.65;2.72;;;;;;;7.59;60.51;100776.00;5033761;28;20135;-79
2023/03/11 08:26:41;;;;;;;9.68;2.38;;;;;;;7.62;60.32;100785.25;5021751;28;20909;-80
2023/03/11 08:29:07;;;;;;;8.75;2.20;;;;;;;7.44;60.43;100783.38;5019894;28;20087;-81
2023/03/11 08:31:36;;;;;;;6.45;1.90;;;;;;;7.91;60.08;100785.22;5032211;28;20040;-82
2023/03/11 08:34:06;;;;;;;7.70;1.88;;;;;;;8.28;59.25;100787.84;5035354;28;20413;-80
2023/03/11 08:36:32;;;;;;;16.60;2.17;;;;;;;8.07;60.63;100789.81;5037854;28;20044;-79
2023/03/11 08:38:58;;;;;;;7.30;1.80;;;;;;;8.38;56.81;100790.38;5029872;28;20040;-79
2023/03/11 08:41:23;;;;;;;8.32;2.05;;;;;;;8.56;58.80;100786.13;5031296;28;20123;-79
2023/03/11 08:43:51;;;;;;;9.52;1.90;;;;;;;8.20;57.22;100785.16;5054073;28;20131;-81
2023/03/11 08:46:29;;;;;;;6.72;1.77;;;;;;;8.38;57.43;100786.03;5027446;28;20040;-79
2023/03/11 08:48:55;;;;;;;5.88;1.45;;;;;;;8.46;56.03;100787.16;5038893;28;20048;-79
2023/03/11 08:51:22;;;;;;;7.82;1.83;;;;;;;8.53;58.04;100795.94;5029845;28;20041;-83
2023/03/11 08:53:48;;;;;;;15.60;4.10;;;;;;;8.58;57.21;100799.72;5018754;28;20025;-83
2023/03/11 08:56:13;;;;;;;32.25;8.43;;;;;;;8.73;56.58;100801.84;5037249;28;20137;-79
2023/03/11 08:58:38;;;;;;;45.47;11.00;;;;;;;8.84;54.88;100798.25;5022405;28;20045;-80
2023/03/11 09:01:05;;;;;;;12.18;4.22;;;;;;;8.73;55.15;100791.50;5029471;28;20036;-80
2023/03/11 09:03:32;;;;;;;99.00;23.35;;;;;;;8.62;56.51;100799.44;5027101;28;20043;-79
2023/03/11 09:05:58;;;;;;;61.40;18.08;;;;;;;8.67;56.68;100797.25;5018484;28;20075;-80
2023/03/11 09:08:24;;;;;;;52.95;12.93;;;;;;;8.70;57.51;100787.44;5039899;28;20037;-82
2023/03/11 09:10:50;;;;;;;40.90;7.55;;;;;;;8.62;56.49;100792.50;5035275;28;20020;-81
2023/03/11 09:13:15;;;;;;;5.45;1.60;;;;;;;8.53;56.92;100789.00;5037455;28;20079;-80
2023/03/11 09:15:40;;;;;;;3.30;1.13;;;;;;;8.38;51.98;100798.97;5018455;28;20029;-81
2023/03/11 09:18:07;;;;;;;4.93;1.63;;;;;;;8.02;53.76;100797.97;5032183;28;20037;-83
2023/03/11 09:20:36;;;;;;;8.85;1.60;;;;;;;7.93;55.33;100798.78;5026245;28;20040;-78
2023/03/11 09:23:01;;;;;;;8.38;1.75;;;;;;;7.71;55.53;100800.72;5032912;28;20041;-82
2023/03/11 09:25:27;;;;;;;4.47;1.75;;;;;;;7.59;54.25;100801.81;5018858;28;20103;-79
2023/03/11 09:27:52;;;;;;;5.20;0.95;;;;;;;7.67;55.90;100801.97;5018895;28;20040;-82
2023/03/11 09:30:18;;;;;;;6.68;1.88;;;;;;;7.48;57.16;100807.09;5051774;28;20040;-78
2023/03/11 09:32:43;;;;;;;6.32;0.98;;;;;;;7.42;53.60;100803.31;5020727;28;20051;-81
2023/03/11 09:35:08;;;;;;;4.80;1.25;;;;;;;7.22;52.40;100805.88;5037881;28;20032;-80
2023/03/11 09:37:34;;;;;;;5.53;1.10;;;;;;;7.28;54.76;100809.69;5018331;28;20052;-79
2023/03/11 09:40:00;;;;;;;3.80;1.40;;;;;;;7.05;52.81;100821.19;5033336;28;20042;-81
2023/03/11 09:42:28;;;;;;;5.50;1.20;;;;;;;6.66;51.95;100810.75;5020686;28;20029;-81
2023/03/11 09:45:02;;;;;;;8.30;2.42;;;;;;;6.28;57.32;100815.59;5032601;28;20041;-83
2023/03/11 09:47:59;;;;;;;4.95;1.45;;;;;;;6.39;56.72;100812.94;5036167;28;20677;-80
2023/03/11 09:50:31;;;;;;;5.38;0.98;;;;;;;6.48;56.99;100815.69;5046161;28;20041;-80
2023/03/11 09:53:17;;;;;;;2.78;0.70;;;;;;;6.43;51.13;100824.63;5036495;28;21303;-79
2023/03/11 09:55:52;;;;;;;6.05;0.80;;;;;;;6.35;50.14;100827.03;5021363;28;20044;-80
2023/03/11 09:58:30;;;;;;;4.93;1.42;;;;;;;6.44;50.75;100830.59;5028768;28;20126;-81
2023/03/11 10:00:56;;;;;;;3.13;0.88;;;;;;;6.02;49.16;100828.84;5028698;28;20033;-79
2023/03/11 10:03:28;;;;;;;5.10;0.80;;;;;;;5.74;53.56;100835.41;5030355;28;20407;-80
2023/03/11 10:06:06;;;;;;;3.42;1.35;;;;;;;5.62;56.15;100838.97;5029371;28;20559;-80
2023/03/11 10:09:06;;;;;;;4.90;1.00;;;;;;;5.76;54.59;100841.22;5027817;28;20051;-80
2023/03/11 10:11:44;;;;;;;3.08;0.93;;;;;;;5.80;54.40;100841.81;5011774;28;20026;-78
2023/03/11 10:14:19;;;;;;;3.78;1.17;;;;;;;5.91;55.84;100841.75;5010329;28;20655;-82
2023/03/11 10:16:47;;;;;;;7.63;1.15;;;;;;;5.75;56.71;100846.53;5029289;28;20029;-78
2023/03/11 10:19:30;;;;;;;3.65;0.60;;;;;;;5.54;55.94;100851.59;5032625;28;20171;-80
2023/03/11 10:22:20;;;;;;;6.10;1.55;;;;;;;5.46;57.09;100853.06;5013425;28;20042;-79
2023/03/11 10:25:10;;;;;;;5.00;0.80;;;;;;;5.71;57.77;100863.97;5011367;28;20041;-79
2023/03/11 10:27:50;;;;;;;3.47;0.70;;;;;;;5.81;53.57;100856.31;5045964;28;20044;-79
2023/03/11 10:30:26;;;;;;;7.47;1.17;;;;;;;5.60;52.67;100848.56;5014425;28;20048;-79
2023/03/11 10:33:19;;;;;;;6.15;0.85;;;;;;;5.45;55.11;100848.84;5026579;28;20083;-78
2023/03/11 10:35:49;;;;;;;4.88;0.73;;;;;;;5.29;52.92;100856.13;5039673;28;20033;-80
2023/03/11 10:38:25;;;;;;;4.93;0.80;;;;;;;5.26;53.50;100848.66;5030938;28;20140;-80
2023/03/11 10:40:55;;;;;;;5.78;1.40;;;;;;;5.34;55.53;100850.63;5028385;28;20037;-79
2023/03/11 10:44:02;;;;;;;7.15;0.90;;;;;;;5.30;54.63;100844.09;5022863;28;20033;-79
2023/03/11 10:46:28;;;;;;;10.85;1.35;;;;;;;5.41;55.06;100851.78;5000372;28;20438;-79
2023/03/11 10:48:54;;;;;;;6.05;1.13;;;;;;;5.64;56.99;100853.34;5027305;28;20044;-79
2023/03/11 10:51:33;;;;;;;9.40;1.55;;;;;;;5.61;55.72;100857.91;5015594;28;20491;-80
2023/03/11 10:54:01;;;;;;;5.90;0.98;;;;;;;5.54;57.04;100856.75;5027099;28;20099;-78
2023/03/11 10:56:28;;;;;;;6.43;0.93;;;;;;;5.30;57.88;100850.03;5016210;28;20048;-78
2023/03/11 10:58:54;;;;;;;2.72;0.90;;;;;;;5.30;53.79;100847.47;5029126;28;20044;-80
2023/03/11 11:01:20;;;;;;;3.58;0.80;;;;;;;5.34;56.31;100853.19;5029654;28;20037;-80
2023/03/11 11:03:49;;;;;;;4.03;0.80;;;;;;;5.44;57.57;100854.09;5015968;28;20128;-80
2023/03/11 11:06:33;;;;;;;12.77;4.15;;;;;;;5.43;56.71;100853.28;5030286;28;20154;-79
2023/03/11 11:09:18;;;;;;;6.75;3.05;;;;;;;5.49;56.76;100848.59;5013181;28;20084;-79
2023/03/11 11:12:05;;;;;;;6.05;2.40;;;;;;;5.51;57.02;100855.25;5018728;28;20037;-80
2023/03/11 11:14:41;;;;;;;7.28;1.23;;;;;;;5.36;55.32;100859.03;5017665;28;20036;-80
2023/03/11 11:17:16;;;;;;;7.88;2.30;;;;;;;5.59;55.95;100873.44;5017975;28;20637;-80
2023/03/11 11:19:44;;;;;;;4.15;1.05;;;;;;;5.43;56.58;100873.84;5048238;28;20186;-79
2023/03/11 11:22:16;;;;;;;5.38;1.00;;;;;;;5.11;55.18;100880.72;5010899;28;20048;-81
2023/03/11 11:24:47;;;;;;;4.57;1.00;;;;;;;5.02;54.69;100879.66;5027825;28;20440;-80
2023/03/11 11:27:25;;;;;;;3.85;0.68;;;;;;;5.07;55.93;100877.56;5028633;28;20048;-79